createdAt,value
2023-04-27T00:03:49.620Z,4.55
2023-04-27T00:08:51.934Z,4.78
2023-04-27T00:13:54.153Z,6.72
2023-04-27T00:18:56.261Z,6.70
2023-04-27T00:23:58.593Z,9.70
2023-04-27T00:29:00.719Z,7.60
2023-04-27T00:34:02.879Z,7.75
2023-04-27T00:39:06.673Z,5.07
2023-04-27T00:44:08.869Z,6.13
2023-04-27T00:49:11.302Z,5.05
2023-04-27T00:54:16.215Z,7.65
2023-04-27T00:59:19.996Z,7.57
2023-04-27T01:04:22.707Z,6.13
2023-04-27T01:09:24.969Z,8.98
2023-04-27T01:14:27.094Z,7.95
2023-04-27T01:19:29.283Z,8.98
2023-04-27T01:24:31.518Z,7.47
2023-04-27T01:29:33.618Z,5.70
2023-04-27T01:34:35.909Z,6.20
2023-04-27T01:39:38.876Z,3.88
2023-04-27T01:44:41.513Z,7.30
2023-04-27T01:49:44.643Z,6.07
2023-04-27T01:54:46.802Z,5.10
2023-04-27T01:59:48.963Z,4.97
2023-04-27T02:04:51.271Z,3.63
2023-04-27T02:09:53.622Z,3.50
2023-04-27T02:14:55.965Z,31.33
2023-04-27T02:19:58.274Z,11.48
2023-04-27T02:25:00.902Z,11.70
2023-04-27T02:30:06.276Z,7.15
2023-04-27T02:35:09.976Z,10.57
2023-04-27T02:40:13.152Z,10.38
2023-04-27T02:45:15.376Z,7.45
2023-04-27T02:50:17.778Z,4.57
2023-04-27T02:55:21.788Z,9.32
2023-04-27T03:00:24.336Z,10.18
2023-04-27T03:05:28.720Z,8.43
2023-04-27T03:10:30.952Z,16.15
2023-04-27T03:15:33.153Z,11.18
2023-04-27T03:20:35.463Z,8.93
2023-04-27T03:25:37.692Z,4.85
2023-04-27T03:30:41.630Z,5.05
2023-04-27T03:35:43.832Z,11.13
2023-04-27T03:40:46.032Z,20.20
2023-04-27T03:45:48.724Z,14.50
2023-04-27T03:50:51.277Z,10.85
2023-04-27T03:55:53.484Z,13.18
2023-04-27T04:00:57.703Z,9.20
2023-04-27T04:05:59.934Z,12.05
2023-04-27T04:11:02.165Z,13.25
2023-04-27T04:16:09.222Z,17.02
2023-04-27T04:21:11.719Z,11.98
2023-04-27T04:26:15.377Z,17.73
2023-04-27T04:31:18.638Z,21.13
2023-04-27T04:36:20.937Z,14.30
2023-04-27T04:41:24.203Z,15.32
2023-04-27T04:46:26.466Z,24.67
2023-04-27T04:51:28.655Z,16.80
2023-04-27T04:56:30.982Z,28.45
2023-04-27T05:01:33.296Z,15.52
2023-04-27T05:06:35.536Z,17.95
2023-04-27T05:11:37.757Z,14.30
2023-04-27T05:16:40.142Z,14.98
2023-04-27T05:21:42.515Z,19.02
2023-04-27T05:26:44.760Z,9.63
2023-04-27T05:31:47.086Z,8.80
2023-04-27T05:36:49.384Z,17.92
2023-04-27T05:41:51.871Z,9.13
2023-04-27T05:46:54.032Z,8.27
2023-04-27T05:51:56.408Z,7.10
2023-04-27T05:56:58.547Z,8.68
2023-04-27T06:02:00.849Z,9.90
2023-04-27T06:07:08.434Z,7.25
2023-04-27T06:12:10.656Z,7.40
2023-04-27T06:17:12.900Z,5.25
2023-04-27T06:22:15.064Z,6.35
2023-04-27T06:27:17.286Z,4.57
2023-04-27T06:32:19.861Z,6.63
2023-04-27T06:37:22.364Z,6.82
2023-04-27T06:42:24.720Z,3.40
2023-04-27T06:47:26.890Z,4.03
2023-04-27T06:52:29.047Z,5.18
2023-04-27T06:57:31.521Z,5.10
2023-04-27T07:02:33.961Z,4.05
2023-04-27T07:07:36.535Z,5.35
2023-04-27T07:12:39.250Z,4.78
2023-04-27T07:17:42.024Z,5.25
2023-04-27T07:22:45.251Z,2.72
2023-04-27T07:27:47.574Z,4.18
2023-04-27T07:32:54.936Z,4.43
2023-04-27T07:37:57.251Z,7.28
2023-04-27T07:43:00.206Z,5.20
2023-04-27T07:48:02.729Z,6.15
2023-04-27T07:53:05.022Z,4.97
2023-04-27T07:58:07.465Z,2.63
2023-04-27T08:03:09.983Z,4.72
2023-04-27T08:08:12.742Z,2.65
2023-04-27T08:13:14.964Z,6.43
2023-04-27T08:18:18.255Z,5.22
2023-04-27T08:23:20.550Z,3.10
2023-04-27T08:28:23.784Z,1.95
2023-04-27T08:33:25.995Z,7.32
2023-04-27T08:38:28.094Z,3.47
2023-04-27T08:43:36.919Z,3.55
2023-04-27T08:48:39.016Z,7.73
2023-04-27T08:53:49.621Z,3.85
2023-04-27T08:58:56.038Z,3.63
2023-04-27T09:04:02.660Z,4.72
2023-04-27T09:09:05.257Z,3.03
2023-04-27T09:14:19.343Z,7.00
2023-04-27T09:19:25.820Z,5.93
2023-04-27T09:24:29.357Z,4.05
2023-04-27T09:29:36.698Z,5.60
2023-04-27T09:34:40.484Z,4.28
2023-04-27T09:39:43.474Z,4.20
2023-04-27T09:44:46.286Z,2.97
2023-04-27T09:49:51.280Z,3.58
2023-04-27T09:54:58.541Z,4.93
2023-04-27T10:00:50.303Z,3.00
2023-04-27T10:06:27.284Z,2.45
2023-04-27T10:11:44.719Z,4.88
2023-04-27T10:16:51.410Z,3.30
2023-04-27T10:22:03.668Z,5.03
2023-04-27T10:27:08.218Z,7.00
2023-04-27T10:32:13.576Z,2.72
2023-04-27T10:37:16.678Z,9.43
2023-04-27T10:42:29.150Z,13.05
2023-04-27T10:47:42.292Z,2.05
2023-04-27T10:52:44.979Z,2.83
2023-04-27T10:57:51.991Z,3.53
2023-04-27T11:02:55.861Z,2.03
2023-04-27T11:08:19.277Z,2.17
2023-04-27T11:13:24.083Z,3.90
2023-04-27T11:18:30.135Z,2.47
2023-04-27T11:23:39.992Z,3.42
2023-04-27T11:28:44.169Z,1.83
2023-04-27T11:33:50.483Z,2.63
2023-04-27T11:38:58.398Z,2.97
2023-04-27T11:44:10.805Z,2.15
2023-04-27T11:49:13.361Z,3.30
2023-04-27T11:54:16.578Z,3.78
2023-04-27T11:59:27.992Z,7.65
2023-04-27T12:04:31.448Z,2.25
2023-04-27T12:09:34.329Z,2.00
2023-04-27T12:14:37.420Z,3.03
2023-04-27T12:19:39.653Z,2.78
2023-04-27T12:24:43.028Z,1.75
2023-04-27T12:29:45.266Z,2.80
2023-04-27T12:34:47.924Z,5.68
2023-04-27T12:39:50.418Z,3.17
2023-04-27T12:44:52.881Z,3.95
2023-04-27T12:49:55.252Z,2.55
2023-04-27T12:54:59.664Z,4.55
2023-04-27T13:00:02.449Z,6.82
2023-04-27T13:05:06.589Z,4.45
2023-04-27T13:10:09.233Z,3.08
2023-04-27T13:15:11.738Z,4.80
2023-04-27T13:20:14.001Z,3.25
2023-04-27T13:25:17.279Z,2.33
2023-04-27T13:30:19.509Z,2.90
2023-04-27T13:35:21.840Z,2.40
2023-04-27T13:40:24.114Z,4.68
2023-04-27T13:45:26.402Z,6.28
2023-04-27T13:50:28.756Z,4.32
2023-04-27T13:55:31.213Z,3.42
2023-04-27T14:00:37.116Z,4.72
2023-04-27T14:05:39.319Z,4.47
2023-04-27T14:10:42.192Z,4.40
2023-04-27T14:15:44.426Z,3.00
2023-04-27T14:20:46.924Z,6.10
2023-04-27T14:25:49.087Z,7.35
2023-04-27T14:30:52.104Z,4.75
2023-04-27T14:35:54.831Z,2.65
2023-04-27T14:40:57.224Z,5.35
2023-04-27T14:46:05.118Z,6.50
2023-04-27T14:51:23.408Z,7.57
2023-04-27T14:56:25.840Z,2.28
2023-04-27T15:01:28.162Z,3.78
2023-04-27T15:06:30.855Z,6.50
2023-04-27T15:11:33.326Z,1.65
2023-04-27T15:16:35.936Z,2.72
2023-04-27T15:21:38.396Z,4.47
2023-04-27T15:26:41.578Z,2.17
2023-04-27T15:31:44.003Z,3.85
2023-04-27T15:36:46.914Z,3.67
2023-04-27T15:41:49.494Z,3.00
2023-04-27T15:46:51.787Z,3.42
2023-04-27T15:51:55.706Z,2.72
2023-04-27T15:57:01.486Z,4.95
2023-04-27T16:02:04.252Z,3.10
2023-04-27T16:07:09.849Z,3.88
2023-04-27T16:12:12.124Z,1.73
2023-04-27T16:17:14.860Z,4.05
2023-04-27T16:22:17.568Z,2.40
2023-04-27T16:27:21.264Z,5.68
2023-04-27T16:32:23.802Z,2.95
2023-04-27T16:37:26.044Z,4.80
2023-04-27T16:42:28.268Z,5.47
2023-04-27T16:47:31.842Z,3.58
2023-04-27T16:52:34.108Z,8.43
2023-04-27T16:57:36.642Z,6.95
2023-04-27T17:02:40.503Z,2.58
2023-04-27T17:07:44.553Z,8.23
2023-04-27T17:12:46.844Z,7.93
2023-04-27T17:17:49.133Z,8.43
2023-04-27T17:22:51.358Z,6.10
2023-04-27T17:27:53.595Z,5.80
2023-04-27T17:32:55.990Z,9.05
2023-04-27T17:37:58.348Z,11.20
2023-04-27T17:43:00.588Z,5.25
2023-04-27T17:48:03.305Z,5.10
2023-04-27T17:53:05.674Z,7.70
2023-04-27T17:58:08.047Z,9.27
2023-04-27T18:03:11.818Z,3.83
2023-04-27T18:08:14.117Z,5.75
2023-04-27T18:13:16.805Z,8.88
2023-04-27T18:18:23.237Z,3.63
2023-04-27T18:23:27.460Z,5.75
2023-04-27T18:28:29.777Z,9.27
2023-04-27T18:33:32.000Z,9.07
2023-04-27T18:38:34.296Z,12.38
2023-04-27T18:43:39.798Z,10.50
2023-04-27T18:48:42.337Z,6.05
2023-04-27T18:53:44.480Z,12.15
2023-04-27T18:58:48.842Z,12.18
2023-04-27T19:03:51.873Z,9.20
2023-04-27T19:08:54.313Z,7.25
2023-04-27T19:13:57.402Z,5.43
2023-04-27T19:18:59.633Z,10.13
2023-04-27T19:24:02.015Z,15.70
2023-04-27T19:29:04.377Z,9.15
2023-04-27T19:34:06.677Z,7.93
2023-04-27T19:39:09.020Z,7.07
2023-04-27T19:44:11.507Z,17.27
2023-04-27T19:49:14.469Z,15.95
2023-04-27T19:54:17.365Z,9.15
2023-04-27T19:59:19.829Z,7.63
2023-04-27T20:04:22.457Z,12.65
2023-04-27T20:09:25.047Z,6.88
2023-04-27T20:14:29.525Z,11.25
2023-04-27T20:19:32.624Z,13.52
2023-04-27T20:24:35.897Z,11.13
2023-04-27T20:29:38.503Z,16.10
2023-04-27T20:34:40.780Z,16.38
2023-04-27T20:39:43.564Z,12.32
2023-04-27T20:44:48.872Z,9.63
2023-04-27T20:49:51.701Z,10.82
2023-04-27T20:54:54.227Z,9.65
2023-04-27T20:59:56.503Z,15.68
2023-04-27T21:04:58.794Z,9.38
2023-04-27T21:10:06.351Z,13.15
2023-04-27T21:15:09.214Z,7.28
2023-04-27T21:20:11.941Z,8.80
2023-04-27T21:25:14.368Z,8.82
2023-04-27T21:30:16.895Z,9.45
2023-04-27T21:35:19.093Z,15.65
2023-04-27T21:40:21.545Z,6.30
2023-04-27T21:45:24.233Z,8.32
2023-04-27T21:50:26.363Z,8.63
2023-04-27T21:55:28.562Z,8.07
2023-04-27T22:00:30.731Z,8.63
2023-04-27T22:05:33.839Z,7.10
2023-04-27T22:10:36.714Z,7.55
2023-04-27T22:15:42.120Z,5.88
2023-04-27T22:20:44.485Z,4.60
2023-04-27T22:25:47.137Z,5.18
2023-04-27T22:30:49.390Z,6.88
2023-04-27T22:35:51.773Z,7.15
2023-04-27T22:40:53.985Z,7.20
2023-04-27T22:45:56.275Z,7.82
2023-04-27T22:50:58.458Z,11.38
2023-04-27T22:56:01.498Z,6.18
2023-04-27T23:01:04.501Z,7.00
2023-04-27T23:06:08.008Z,5.80
2023-04-27T23:11:13.995Z,8.27
2023-04-27T23:16:16.440Z,5.45
2023-04-27T23:21:18.929Z,6.05
2023-04-27T23:26:21.679Z,4.68
2023-04-27T23:31:24.313Z,5.20
2023-04-27T23:36:26.893Z,7.65
2023-04-27T23:41:29.134Z,7.22
2023-04-27T23:46:31.396Z,5.55
2023-04-27T23:51:34.007Z,7.32
2023-04-27T23:56:37.027Z,6.43
